sensor_id;sensor_type;location;lat;lon;timestamp;P1;durP1;ratioP1;P2;durP2;ratioP2
30247;SDS011;17063;50.892;4.702;2022-11-25T00:01:13;13.90;;;2.87;;
30247;SDS011;17063;50.892;4.702;2022-11-25T00:03:43;13.87;;;2.57;;
30247;SDS011;17063;50.892;4.702;2022-11-25T00:06:12;17.37;;;3.20;;
30247;SDS011;17063;50.892;4.702;2022-11-25T00:08:41;16.90;;;2.70;;
30247;SDS011;17063;50.892;4.702;2022-11-25T00:11:11;12.00;;;2.30;;
30247;SDS011;17063;50.892;4.702;2022-11-25T00:13:39;12.97;;;3.03;;
30247;SDS011;17063;50.892;4.702;2022-11-25T00:16:07;13.47;;;2.40;;
30247;SDS011;17063;50.892;4.702;2022-11-25T00:18:36;12.77;;;2.57;;
30247;SDS011;17063;50.892;4.702;2022-11-25T00:21:07;12.23;;;2.33;;
30247;SDS011;17063;50.892;4.702;2022-11-25T00:23:37;15.80;;;2.87;;
30247;SDS011;17063;50.892;4.702;2022-11-25T00:28:42;14.00;;;2.60;;
30247;SDS011;17063;50.892;4.702;2022-11-25T00:31:15;11.90;;;2.33;;
30247;SDS011;17063;50.892;4.702;2022-11-25T00:33:52;15.83;;;2.73;;
30247;SDS011;17063;50.892;4.702;2022-11-25T00:36:20;11.33;;;2.83;;
30247;SDS011;17063;50.892;4.702;2022-11-25T00:38:55;12.63;;;2.50;;
30247;SDS011;17063;50.892;4.702;2022-11-25T00:41:24;9.93;;;2.47;;
30247;SDS011;17063;50.892;4.702;2022-11-25T00:44:11;12.77;;;2.63;;
30247;SDS011;17063;50.892;4.702;2022-11-25T00:47:02;14.37;;;2.80;;
30247;SDS011;17063;50.892;4.702;2022-11-25T00:49:29;9.93;;;2.37;;
30247;SDS011;17063;50.892;4.702;2022-11-25T00:51:56;12.87;;;2.63;;
30247;SDS011;17063;50.892;4.702;2022-11-25T00:54:23;13.07;;;2.53;;
30247;SDS011;17063;50.892;4.702;2022-11-25T00:56:49;17.07;;;3.03;;
30247;SDS011;17063;50.892;4.702;2022-11-25T00:59:17;9.37;;;2.40;;
30247;SDS011;17063;50.892;4.702;2022-11-25T01:01:44;11.30;;;2.07;;
30247;SDS011;17063;50.892;4.702;2022-11-25T01:04:12;9.67;;;2.23;;
30247;SDS011;17063;50.892;4.702;2022-11-25T01:06:38;11.53;;;2.73;;
30247;SDS011;17063;50.892;4.702;2022-11-25T01:09:06;15.67;;;2.53;;
30247;SDS011;17063;50.892;4.702;2022-11-25T01:11:33;11.80;;;2.60;;
30247;SDS011;17063;50.892;4.702;2022-11-25T01:14:00;12.40;;;2.37;;
30247;SDS011;17063;50.892;4.702;2022-11-25T01:16:28;12.07;;;2.50;;
30247;SDS011;17063;50.892;4.702;2022-11-25T01:18:56;11.23;;;2.50;;
30247;SDS011;17063;50.892;4.702;2022-11-25T01:21:27;9.10;;;1.40;;
30247;SDS011;17063;50.892;4.702;2022-11-25T01:24:05;14.37;;;2.60;;
30247;SDS011;17063;50.892;4.702;2022-11-25T01:26:32;7.67;;;1.33;;
30247;SDS011;17063;50.892;4.702;2022-11-25T01:29:01;9.27;;;1.40;;
30247;SDS011;17063;50.892;4.702;2022-11-25T01:31:33;5.60;;;0.80;;
30247;SDS011;17063;50.892;4.702;2022-11-25T01:34:05;2.97;;;0.70;;
30247;SDS011;17063;50.892;4.702;2022-11-25T01:36:34;2.47;;;0.83;;
30247;SDS011;17063;50.892;4.702;2022-11-25T01:39:02;3.80;;;0.80;;
30247;SDS011;17063;50.892;4.702;2022-11-25T01:41:29;3.10;;;1.50;;
30247;SDS011;17063;50.892;4.702;2022-11-25T01:54:25;6.03;;;0.83;;
30247;SDS011;17063;50.892;4.702;2022-11-25T01:56:54;1.60;;;0.80;;
30247;SDS011;17063;50.892;4.702;2022-11-25T01:59:24;3.63;;;0.97;;
30247;SDS011;17063;50.892;4.702;2022-11-25T02:01:51;5.97;;;0.80;;
30247;SDS011;17063;50.892;4.702;2022-11-25T02:04:19;2.57;;;0.60;;
30247;SDS011;17063;50.892;4.702;2022-11-25T02:06:53;5.20;;;0.53;;
30247;SDS011;17063;50.892;4.702;2022-11-25T02:09:23;3.97;;;0.83;;
30247;SDS011;17063;50.892;4.702;2022-11-25T02:11:50;7.83;;;0.93;;
30247;SDS011;17063;50.892;4.702;2022-11-25T02:14:17;3.30;;;0.63;;
30247;SDS011;17063;50.892;4.702;2022-11-25T02:16:45;2.80;;;0.80;;
30247;SDS011;17063;50.892;4.702;2022-11-25T02:19:19;5.73;;;0.90;;
30247;SDS011;17063;50.892;4.702;2022-11-25T02:21:50;4.70;;;0.80;;
30247;SDS011;17063;50.892;4.702;2022-11-25T02:27:12;2.70;;;0.60;;
30247;SDS011;17063;50.892;4.702;2022-11-25T02:29:41;0.83;;;0.40;;
30247;SDS011;17063;50.892;4.702;2022-11-25T02:32:09;0.80;;;0.53;;
30247;SDS011;17063;50.892;4.702;2022-11-25T02:34:45;2.77;;;0.70;;
30247;SDS011;17063;50.892;4.702;2022-11-25T02:37:13;1.57;;;0.37;;
30247;SDS011;17063;50.892;4.702;2022-11-25T02:39:41;3.23;;;0.47;;
30247;SDS011;17063;50.892;4.702;2022-11-25T02:42:11;0.77;;;0.70;;
30247;SDS011;17063;50.892;4.702;2022-11-25T02:44:37;3.83;;;0.60;;
30247;SDS011;17063;50.892;4.702;2022-11-25T02:47:04;2.20;;;0.43;;
30247;SDS011;17063;50.892;4.702;2022-11-25T02:49:31;2.70;;;0.50;;
30247;SDS011;17063;50.892;4.702;2022-11-25T02:51:58;2.07;;;0.70;;
30247;SDS011;17063;50.892;4.702;2022-11-25T02:54:26;2.33;;;0.77;;
30247;SDS011;17063;50.892;4.702;2022-11-25T02:56:53;2.23;;;0.80;;
30247;SDS011;17063;50.892;4.702;2022-11-25T02:59:20;2.13;;;0.50;;
30247;SDS011;17063;50.892;4.702;2022-11-25T03:01:47;1.73;;;0.80;;
30247;SDS011;17063;50.892;4.702;2022-11-25T03:04:14;1.17;;;1.07;;
30247;SDS011;17063;50.892;4.702;2022-11-25T03:06:42;0.73;;;0.70;;
30247;SDS011;17063;50.892;4.702;2022-11-25T03:09:09;2.40;;;0.70;;
30247;SDS011;17063;50.892;4.702;2022-11-25T03:11:36;3.97;;;0.83;;
30247;SDS011;17063;50.892;4.702;2022-11-25T03:14:22;1.67;;;0.70;;
30247;SDS011;17063;50.892;4.702;2022-11-25T03:16:48;7.57;;;1.00;;
30247;SDS011;17063;50.892;4.702;2022-11-25T03:19:15;2.50;;;0.80;;
30247;SDS011;17063;50.892;4.702;2022-11-25T03:21:43;2.00;;;0.60;;
30247;SDS011;17063;50.892;4.702;2022-11-25T03:24:09;1.27;;;0.90;;
30247;SDS011;17063;50.892;4.702;2022-11-25T03:26:36;3.30;;;0.90;;
30247;SDS011;17063;50.892;4.702;2022-11-25T03:29:03;2.13;;;0.70;;
30247;SDS011;17063;50.892;4.702;2022-11-25T03:31:32;6.90;;;1.00;;
30247;SDS011;17063;50.892;4.702;2022-11-25T03:33:59;4.97;;;1.13;;
30247;SDS011;17063;50.892;4.702;2022-11-25T03:36:26;4.17;;;1.07;;
30247;SDS011;17063;50.892;4.702;2022-11-25T03:38:53;3.53;;;1.30;;
30247;SDS011;17063;50.892;4.702;2022-11-25T03:41:20;2.17;;;0.90;;
30247;SDS011;17063;50.892;4.702;2022-11-25T03:43:46;6.03;;;1.20;;
30247;SDS011;17063;50.892;4.702;2022-11-25T03:46:15;4.37;;;1.37;;
30247;SDS011;17063;50.892;4.702;2022-11-25T03:48:43;3.73;;;1.20;;
30247;SDS011;17063;50.892;4.702;2022-11-25T03:51:10;5.40;;;1.43;;
30247;SDS011;17063;50.892;4.702;2022-11-25T03:53:37;6.03;;;1.10;;
30247;SDS011;17063;50.892;4.702;2022-11-25T03:56:06;3.00;;;1.23;;
30247;SDS011;17063;50.892;4.702;2022-11-25T03:58:33;4.07;;;1.17;;
30247;SDS011;17063;50.892;4.702;2022-11-25T04:01:02;6.80;;;1.70;;
30247;SDS011;17063;50.892;4.702;2022-11-25T04:03:29;5.50;;;1.57;;
30247;SDS011;17063;50.892;4.702;2022-11-25T04:05:56;5.20;;;1.20;;
30247;SDS011;17063;50.892;4.702;2022-11-25T04:08:23;5.43;;;1.50;;
30247;SDS011;17063;50.892;4.702;2022-11-25T04:10:50;6.30;;;1.80;;
30247;SDS011;17063;50.892;4.702;2022-11-25T04:13:20;6.50;;;1.60;;
30247;SDS011;17063;50.892;4.702;2022-11-25T04:15:49;4.00;;;1.33;;
30247;SDS011;17063;50.892;4.702;2022-11-25T04:18:17;12.60;;;1.97;;
30247;SDS011;17063;50.892;4.702;2022-11-25T04:20:47;7.00;;;1.70;;
30247;SDS011;17063;50.892;4.702;2022-11-25T04:23:15;5.37;;;1.60;;
30247;SDS011;17063;50.892;4.702;2022-11-25T04:25:50;6.30;;;1.40;;
30247;SDS011;17063;50.892;4.702;2022-11-25T04:28:29;8.00;;;2.40;;
30247;SDS011;17063;50.892;4.702;2022-11-25T04:30:56;8.93;;;1.67;;
30247;SDS011;17063;50.892;4.702;2022-11-25T04:33:23;10.97;;;2.97;;
30247;SDS011;17063;50.892;4.702;2022-11-25T04:35:51;12.03;;;2.07;;
30247;SDS011;17063;50.892;4.702;2022-11-25T04:38:19;9.00;;;2.33;;
30247;SDS011;17063;50.892;4.702;2022-11-25T04:40:46;7.50;;;1.73;;
30247;SDS011;17063;50.892;4.702;2022-11-25T04:43:16;8.40;;;2.13;;
30247;SDS011;17063;50.892;4.702;2022-11-25T04:45:48;6.20;;;1.73;;
30247;SDS011;17063;50.892;4.702;2022-11-25T04:48:35;7.23;;;1.50;;
30247;SDS011;17063;50.892;4.702;2022-11-25T04:51:02;8.97;;;1.93;;
30247;SDS011;17063;50.892;4.702;2022-11-25T04:53:30;9.43;;;1.80;;
30247;SDS011;17063;50.892;4.702;2022-11-25T04:55:56;6.60;;;1.57;;
30247;SDS011;17063;50.892;4.702;2022-11-25T04:58:23;7.60;;;1.80;;
30247;SDS011;17063;50.892;4.702;2022-11-25T05:01:09;10.97;;;2.20;;
30247;SDS011;17063;50.892;4.702;2022-11-25T05:03:39;8.27;;;1.90;;
30247;SDS011;17063;50.892;4.702;2022-11-25T05:06:14;7.90;;;1.77;;
30247;SDS011;17063;50.892;4.702;2022-11-25T05:08:41;8.27;;;1.90;;
30247;SDS011;17063;50.892;4.702;2022-11-25T05:11:08;6.53;;;1.80;;
30247;SDS011;17063;50.892;4.702;2022-11-25T05:13:36;10.03;;;1.83;;
30247;SDS011;17063;50.892;4.702;2022-11-25T05:16:03;10.77;;;2.07;;
30247;SDS011;17063;50.892;4.702;2022-11-25T05:18:30;6.13;;;1.80;;
30247;SDS011;17063;50.892;4.702;2022-11-25T05:21:00;8.07;;;1.57;;
30247;SDS011;17063;50.892;4.702;2022-11-25T05:23:30;4.87;;;1.47;;
30247;SDS011;17063;50.892;4.702;2022-11-25T05:25:58;5.70;;;1.67;;
30247;SDS011;17063;50.892;4.702;2022-11-25T05:28:36;12.43;;;2.13;;
30247;SDS011;17063;50.892;4.702;2022-11-25T05:31:03;5.97;;;1.87;;
30247;SDS011;17063;50.892;4.702;2022-11-25T05:33:30;11.13;;;1.63;;
30247;SDS011;17063;50.892;4.702;2022-11-25T05:35:58;6.33;;;1.77;;
30247;SDS011;17063;50.892;4.702;2022-11-25T05:38:33;4.83;;;1.60;;
30247;SDS011;17063;50.892;4.702;2022-11-25T05:41:01;7.17;;;1.70;;
30247;SDS011;17063;50.892;4.702;2022-11-25T05:43:29;8.20;;;2.00;;
30247;SDS011;17063;50.892;4.702;2022-11-25T05:45:57;6.30;;;1.77;;
30247;SDS011;17063;50.892;4.702;2022-11-25T05:48:26;6.37;;;1.90;;
30247;SDS011;17063;50.892;4.702;2022-11-25T05:50:53;7.27;;;1.73;;
30247;SDS011;17063;50.892;4.702;2022-11-25T05:53:21;7.70;;;2.23;;
30247;SDS011;17063;50.892;4.702;2022-11-25T05:55:54;6.77;;;1.73;;
30247;SDS011;17063;50.892;4.702;2022-11-25T05:58:55;9.00;;;2.40;;
30247;SDS011;17063;50.892;4.702;2022-11-25T06:01:33;4.50;;;1.97;;
30247;SDS011;17063;50.892;4.702;2022-11-25T06:04:00;7.37;;;2.43;;
30247;SDS011;17063;50.892;4.702;2022-11-25T06:06:28;10.20;;;2.07;;
30247;SDS011;17063;50.892;4.702;2022-11-25T06:08:55;10.03;;;2.10;;
30247;SDS011;17063;50.892;4.702;2022-11-25T06:11:22;8.77;;;2.10;;
30247;SDS011;17063;50.892;4.702;2022-11-25T06:13:51;5.80;;;1.80;;
30247;SDS011;17063;50.892;4.702;2022-11-25T06:16:20;9.17;;;2.80;;
30247;SDS011;17063;50.892;4.702;2022-11-25T06:18:54;8.60;;;2.10;;
30247;SDS011;17063;50.892;4.702;2022-11-25T06:21:21;7.93;;;1.93;;
30247;SDS011;17063;50.892;4.702;2022-11-25T06:23:49;7.50;;;1.70;;
30247;SDS011;17063;50.892;4.702;2022-11-25T06:26:18;11.30;;;2.13;;
30247;SDS011;17063;50.892;4.702;2022-11-25T06:28:46;6.40;;;2.03;;
30247;SDS011;17063;50.892;4.702;2022-11-25T06:31:14;13.30;;;2.90;;
30247;SDS011;17063;50.892;4.702;2022-11-25T06:33:52;7.93;;;2.13;;
30247;SDS011;17063;50.892;4.702;2022-11-25T06:36:20;10.20;;;2.30;;
30247;SDS011;17063;50.892;4.702;2022-11-25T06:38:48;7.37;;;2.50;;
30247;SDS011;17063;50.892;4.702;2022-11-25T06:41:17;11.17;;;2.20;;
30247;SDS011;17063;50.892;4.702;2022-11-25T06:43:44;11.47;;;2.57;;
30247;SDS011;17063;50.892;4.702;2022-11-25T06:46:12;13.60;;;2.93;;
30247;SDS011;17063;50.892;4.702;2022-11-25T06:48:46;15.17;;;2.67;;
30247;SDS011;17063;50.892;4.702;2022-11-25T06:51:15;11.30;;;2.10;;
30247;SDS011;17063;50.892;4.702;2022-11-25T06:53:42;7.80;;;2.10;;
30247;SDS011;17063;50.892;4.702;2022-11-25T06:56:13;8.73;;;2.07;;
30247;SDS011;17063;50.892;4.702;2022-11-25T06:58:41;10.77;;;1.97;;
30247;SDS011;17063;50.892;4.702;2022-11-25T07:03:44;9.20;;;2.07;;
30247;SDS011;17063;50.892;4.702;2022-11-25T07:06:13;14.53;;;2.20;;
30247;SDS011;17063;50.892;4.702;2022-11-25T07:08:41;10.63;;;2.37;;
30247;SDS011;17063;50.892;4.702;2022-11-25T07:11:21;14.77;;;2.30;;
30247;SDS011;17063;50.892;4.702;2022-11-25T07:13:58;12.23;;;2.43;;
30247;SDS011;17063;50.892;4.702;2022-11-25T07:16:30;11.00;;;2.30;;
30247;SDS011;17063;50.892;4.702;2022-11-25T07:18:58;8.20;;;2.10;;
30247;SDS011;17063;50.892;4.702;2022-11-25T07:21:27;9.37;;;2.37;;
30247;SDS011;17063;50.892;4.702;2022-11-25T07:23:59;8.40;;;2.30;;
30247;SDS011;17063;50.892;4.702;2022-11-25T07:26:28;14.93;;;2.57;;
30247;SDS011;17063;50.892;4.702;2022-11-25T07:28:58;7.37;;;2.13;;
30247;SDS011;17063;50.892;4.702;2022-11-25T07:31:27;6.00;;;2.20;;
30247;SDS011;17063;50.892;4.702;2022-11-25T07:34:00;8.03;;;2.00;;
30247;SDS011;17063;50.892;4.702;2022-11-25T07:36:32;9.40;;;2.50;;
30247;SDS011;17063;50.892;4.702;2022-11-25T07:39:00;8.73;;;2.47;;
30247;SDS011;17063;50.892;4.702;2022-11-25T07:41:30;13.93;;;3.17;;
30247;SDS011;17063;50.892;4.702;2022-11-25T07:43:58;8.27;;;2.40;;
30247;SDS011;17063;50.892;4.702;2022-11-25T07:46:32;9.70;;;2.80;;
30247;SDS011;17063;50.892;4.702;2022-11-25T07:49:02;11.63;;;3.07;;
30247;SDS011;17063;50.892;4.702;2022-11-25T07:53:58;5.73;;;2.10;;
30247;SDS011;17063;50.892;4.702;2022-11-25T07:56:26;16.13;;;2.60;;
30247;SDS011;17063;50.892;4.702;2022-11-25T07:58:54;11.93;;;2.57;;
30247;SDS011;17063;50.892;4.702;2022-11-25T08:01:22;11.27;;;2.10;;
30247;SDS011;17063;50.892;4.702;2022-11-25T08:03:49;9.57;;;2.37;;
30247;SDS011;17063;50.892;4.702;2022-11-25T08:06:17;10.43;;;2.77;;
30247;SDS011;17063;50.892;4.702;2022-11-25T08:08:46;12.10;;;2.77;;
30247;SDS011;17063;50.892;4.702;2022-11-25T08:11:17;11.67;;;2.53;;
30247;SDS011;17063;50.892;4.702;2022-11-25T08:13:45;11.33;;;2.93;;
30247;SDS011;17063;50.892;4.702;2022-11-25T08:16:13;14.83;;;2.80;;
30247;SDS011;17063;50.892;4.702;2022-11-25T08:18:41;11.13;;;2.30;;
30247;SDS011;17063;50.892;4.702;2022-11-25T08:21:09;12.93;;;2.90;;
30247;SDS011;17063;50.892;4.702;2022-11-25T08:23:37;10.17;;;2.77;;
30247;SDS011;17063;50.892;4.702;2022-11-25T08:26:12;17.80;;;3.37;;
30247;SDS011;17063;50.892;4.702;2022-11-25T08:28:40;10.10;;;2.77;;
30247;SDS011;17063;50.892;4.702;2022-11-25T08:31:12;16.90;;;3.30;;
30247;SDS011;17063;50.892;4.702;2022-11-25T08:33:41;22.13;;;3.70;;
30247;SDS011;17063;50.892;4.702;2022-11-25T08:36:09;14.37;;;3.20;;
30247;SDS011;17063;50.892;4.702;2022-11-25T08:38:37;11.40;;;2.90;;
30247;SDS011;17063;50.892;4.702;2022-11-25T08:41:08;18.20;;;4.37;;
30247;SDS011;17063;50.892;4.702;2022-11-25T08:43:37;13.67;;;3.03;;
30247;SDS011;17063;50.892;4.702;2022-11-25T08:46:08;10.77;;;2.80;;
30247;SDS011;17063;50.892;4.702;2022-11-25T08:48:40;11.83;;;2.80;;
30247;SDS011;17063;50.892;4.702;2022-11-25T08:51:08;14.20;;;2.87;;
30247;SDS011;17063;50.892;4.702;2022-11-25T08:53:37;11.93;;;3.03;;
30247;SDS011;17063;50.892;4.702;2022-11-25T08:56:05;17.43;;;3.20;;
30247;SDS011;17063;50.892;4.702;2022-11-25T08:58:32;13.27;;;2.73;;
30247;SDS011;17063;50.892;4.702;2022-11-25T09:00:59;16.93;;;3.10;;
30247;SDS011;17063;50.892;4.702;2022-11-25T09:03:27;13.30;;;3.57;;
30247;SDS011;17063;50.892;4.702;2022-11-25T09:05:54;15.30;;;3.10;;
30247;SDS011;17063;50.892;4.702;2022-11-25T09:08:21;17.30;;;3.67;;
30247;SDS011;17063;50.892;4.702;2022-11-25T09:10:47;10.57;;;2.80;;
30247;SDS011;17063;50.892;4.702;2022-11-25T09:13:14;15.43;;;3.53;;
30247;SDS011;17063;50.892;4.702;2022-11-25T09:15:42;14.00;;;2.93;;
30247;SDS011;17063;50.892;4.702;2022-11-25T09:18:09;17.20;;;3.00;;
30247;SDS011;17063;50.892;4.702;2022-11-25T09:20:37;15.57;;;2.80;;
30247;SDS011;17063;50.892;4.702;2022-11-25T09:23:05;15.10;;;3.17;;
30247;SDS011;17063;50.892;4.702;2022-11-25T09:25:33;10.53;;;2.60;;
30247;SDS011;17063;50.892;4.702;2022-11-25T09:28:00;17.50;;;3.10;;
30247;SDS011;17063;50.892;4.702;2022-11-25T09:30:28;7.80;;;3.57;;
30247;SDS011;17063;50.892;4.702;2022-11-25T09:32:54;15.40;;;2.97;;
30247;SDS011;17063;50.892;4.702;2022-11-25T09:35:22;19.03;;;4.10;;
30247;SDS011;17063;50.892;4.702;2022-11-25T09:37:49;17.63;;;3.53;;
30247;SDS011;17063;50.892;4.702;2022-11-25T09:40:19;14.40;;;2.97;;
30247;SDS011;17063;50.892;4.702;2022-11-25T09:43:04;14.30;;;3.03;;
30247;SDS011;17063;50.892;4.702;2022-11-25T09:46:01;11.30;;;2.70;;
30247;SDS011;17063;50.892;4.702;2022-11-25T09:54:13;14.17;;;2.20;;
30247;SDS011;17063;50.892;4.702;2022-11-25T09:56:57;9.17;;;1.73;;
30247;SDS011;17063;50.892;4.702;2022-11-25T10:00:00;6.97;;;1.37;;
30247;SDS011;17063;50.892;4.702;2022-11-25T10:02:34;6.43;;;1.73;;
30247;SDS011;17063;50.892;4.702;2022-11-25T10:05:06;9.17;;;1.67;;
30247;SDS011;17063;50.892;4.702;2022-11-25T10:07:38;7.47;;;1.97;;
30247;SDS011;17063;50.892;4.702;2022-11-25T10:10:14;4.27;;;1.30;;
30247;SDS011;17063;50.892;4.702;2022-11-25T10:12:54;3.37;;;1.00;;
30247;SDS011;17063;50.892;4.702;2022-11-25T10:15:24;6.80;;;1.80;;
30247;SDS011;17063;50.892;4.702;2022-11-25T10:17:56;5.30;;;1.60;;
30247;SDS011;17063;50.892;4.702;2022-11-25T10:20:30;2.43;;;1.00;;
30247;SDS011;17063;50.892;4.702;2022-11-25T10:23:01;4.53;;;1.63;;
30247;SDS011;17063;50.892;4.702;2022-11-25T10:25:33;6.83;;;1.87;;
30247;SDS011;17063;50.892;4.702;2022-11-25T10:33:13;6.03;;;1.37;;
30247;SDS011;17063;50.892;4.702;2022-11-25T10:36:20;7.13;;;1.33;;
30247;SDS011;17063;50.892;4.702;2022-11-25T10:41:43;1.77;;;1.10;;
30247;SDS011;17063;50.892;4.702;2022-11-25T10:44:17;2.80;;;1.17;;
30247;SDS011;17063;50.892;4.702;2022-11-25T10:46:54;3.60;;;1.17;;
30247;SDS011;17063;50.892;4.702;2022-11-25T10:49:50;2.47;;;1.10;;
30247;SDS011;17063;50.892;4.702;2022-11-25T10:52:20;2.97;;;1.00;;
30247;SDS011;17063;50.892;4.702;2022-11-25T10:54:56;1.73;;;0.90;;
30247;SDS011;17063;50.892;4.702;2022-11-25T10:57:34;4.17;;;1.20;;
30247;SDS011;17063;50.892;4.702;2022-11-25T11:00:04;3.17;;;1.00;;
30247;SDS011;17063;50.892;4.702;2022-11-25T11:02:38;4.10;;;1.20;;
30247;SDS011;17063;50.892;4.702;2022-11-25T11:07:37;3.53;;;0.80;;
30247;SDS011;17063;50.892;4.702;2022-11-25T11:10:14;5.23;;;1.20;;
30247;SDS011;17063;50.892;4.702;2022-11-25T11:15:30;1.53;;;1.00;;
30247;SDS011;17063;50.892;4.702;2022-11-25T11:18:19;5.67;;;1.20;;
30247;SDS011;17063;50.892;4.702;2022-11-25T11:23:59;1.53;;;0.90;;
30247;SDS011;17063;50.892;4.702;2022-11-25T11:26:34;4.00;;;1.27;;
30247;SDS011;17063;50.892;4.702;2022-11-25T11:29:03;9.60;;;1.60;;
30247;SDS011;17063;50.892;4.702;2022-11-25T11:31:42;4.27;;;1.30;;
30247;SDS011;17063;50.892;4.702;2022-11-25T11:36:52;1.70;;;1.03;;
30247;SDS011;17063;50.892;4.702;2022-11-25T11:42:36;6.07;;;1.70;;
30247;SDS011;17063;50.892;4.702;2022-11-25T11:48:11;6.93;;;1.57;;
30247;SDS011;17063;50.892;4.702;2022-11-25T11:50:45;10.23;;;1.40;;
30247;SDS011;17063;50.892;4.702;2022-11-25T11:53:29;7.97;;;1.77;;
30247;SDS011;17063;50.892;4.702;2022-11-25T11:56:08;8.27;;;1.53;;
30247;SDS011;17063;50.892;4.702;2022-11-25T12:04:49;4.47;;;1.30;;
30247;SDS011;17063;50.892;4.702;2022-11-25T12:07:25;7.70;;;1.70;;
30247;SDS011;17063;50.892;4.702;2022-11-25T12:10:05;9.00;;;1.87;;
30247;SDS011;17063;50.892;4.702;2022-11-25T12:12:41;7.67;;;1.87;;
30247;SDS011;17063;50.892;4.702;2022-11-25T12:15:22;8.60;;;1.67;;
30247;SDS011;17063;50.892;4.702;2022-11-25T12:17:58;9.53;;;2.10;;
30247;SDS011;17063;50.892;4.702;2022-11-25T12:20:35;8.37;;;2.00;;
30247;SDS011;17063;50.892;4.702;2022-11-25T12:25:53;7.87;;;2.10;;
30247;SDS011;17063;50.892;4.702;2022-11-25T12:28:38;6.57;;;1.97;;
30247;SDS011;17063;50.892;4.702;2022-11-25T12:31:16;10.40;;;1.80;;
30247;SDS011;17063;50.892;4.702;2022-11-25T12:33:57;10.17;;;1.90;;
30247;SDS011;17063;50.892;4.702;2022-11-25T12:36:31;7.03;;;1.80;;
30247;SDS011;17063;50.892;4.702;2022-11-25T12:39:03;11.83;;;2.13;;
30247;SDS011;17063;50.892;4.702;2022-11-25T12:41:56;12.67;;;2.07;;
30247;SDS011;17063;50.892;4.702;2022-11-25T12:47:20;11.23;;;2.03;;
30247;SDS011;17063;50.892;4.702;2022-11-25T12:49:47;10.30;;;2.13;;
30247;SDS011;17063;50.892;4.702;2022-11-25T12:55:12;9.43;;;2.40;;
30247;SDS011;17063;50.892;4.702;2022-11-25T13:15:02;9.93;;;2.00;;
30247;SDS011;17063;50.892;4.702;2022-11-25T13:17:38;9.90;;;2.30;;
30247;SDS011;17063;50.892;4.702;2022-11-25T13:25:39;10.50;;;1.80;;
30247;SDS011;17063;50.892;4.702;2022-11-25T13:30:52;13.27;;;2.60;;
30247;SDS011;17063;50.892;4.702;2022-11-25T13:35:52;10.27;;;2.40;;
30247;SDS011;17063;50.892;4.702;2022-11-25T13:40:57;9.37;;;2.73;;
30247;SDS011;17063;50.892;4.702;2022-11-25T13:43:27;8.53;;;2.43;;
30247;SDS011;17063;50.892;4.702;2022-11-25T13:45:54;11.93;;;2.57;;
30247;SDS011;17063;50.892;4.702;2022-11-25T13:48:28;10.83;;;2.40;;
30247;SDS011;17063;50.892;4.702;2022-11-25T13:54:06;16.13;;;2.37;;
30247;SDS011;17063;50.892;4.702;2022-11-25T13:56:40;12.97;;;2.47;;
30247;SDS011;17063;50.892;4.702;2022-11-25T14:01:38;9.07;;;2.40;;
30247;SDS011;17063;50.892;4.702;2022-11-25T14:04:07;11.63;;;2.30;;
30247;SDS011;17063;50.892;4.702;2022-11-25T14:06:43;19.33;;;3.23;;
30247;SDS011;17063;50.892;4.702;2022-11-25T14:12:20;14.33;;;2.97;;
30247;SDS011;17063;50.892;4.702;2022-11-25T14:20:34;14.37;;;3.33;;
30247;SDS011;17063;50.892;4.702;2022-11-25T14:23:12;13.90;;;2.33;;
30247;SDS011;17063;50.892;4.702;2022-11-25T14:26:03;16.70;;;3.30;;
30247;SDS011;17063;50.892;4.702;2022-11-25T14:28:57;8.33;;;2.63;;
30247;SDS011;17063;50.892;4.702;2022-11-25T14:31:29;15.60;;;2.53;;
30247;SDS011;17063;50.892;4.702;2022-11-25T14:34:00;17.07;;;2.83;;
30247;SDS011;17063;50.892;4.702;2022-11-25T14:36:32;12.33;;;2.67;;
30247;SDS011;17063;50.892;4.702;2022-11-25T14:39:03;14.33;;;2.63;;
30247;SDS011;17063;50.892;4.702;2022-11-25T14:41:35;19.57;;;3.77;;
30247;SDS011;17063;50.892;4.702;2022-11-25T14:44:04;12.90;;;3.10;;
30247;SDS011;17063;50.892;4.702;2022-11-25T14:46:49;14.60;;;2.80;;
30247;SDS011;17063;50.892;4.702;2022-11-25T14:49:20;12.23;;;3.47;;
30247;SDS011;17063;50.892;4.702;2022-11-25T14:52:07;9.87;;;2.33;;
30247;SDS011;17063;50.892;4.702;2022-11-25T14:54:40;9.63;;;2.43;;
30247;SDS011;17063;50.892;4.702;2022-11-25T14:57:07;21.53;;;3.37;;
30247;SDS011;17063;50.892;4.702;2022-11-25T14:59:35;10.63;;;2.10;;
30247;SDS011;17063;50.892;4.702;2022-11-25T15:02:23;21.17;;;2.97;;
30247;SDS011;17063;50.892;4.702;2022-11-25T15:07:51;15.50;;;3.90;;
30247;SDS011;17063;50.892;4.702;2022-11-25T15:12:54;11.60;;;3.10;;
30247;SDS011;17063;50.892;4.702;2022-11-25T15:15:21;13.20;;;2.90;;
30247;SDS011;17063;50.892;4.702;2022-11-25T15:17:48;21.67;;;3.87;;
30247;SDS011;17063;50.892;4.702;2022-11-25T15:20:14;21.17;;;2.90;;
30247;SDS011;17063;50.892;4.702;2022-11-25T15:22:46;15.37;;;2.97;;
30247;SDS011;17063;50.892;4.702;2022-11-25T15:25:15;10.63;;;2.60;;
30247;SDS011;17063;50.892;4.702;2022-11-25T15:27:45;15.40;;;2.87;;
30247;SDS011;17063;50.892;4.702;2022-11-25T15:30:24;15.33;;;2.83;;
30247;SDS011;17063;50.892;4.702;2022-11-25T15:32:53;12.03;;;3.03;;
30247;SDS011;17063;50.892;4.702;2022-11-25T15:35:25;14.93;;;3.10;;
30247;SDS011;17063;50.892;4.702;2022-11-25T15:37:52;14.50;;;2.97;;
30247;SDS011;17063;50.892;4.702;2022-11-25T15:43:22;17.67;;;3.17;;
30247;SDS011;17063;50.892;4.702;2022-11-25T15:45:50;10.53;;;2.60;;
30247;SDS011;17063;50.892;4.702;2022-11-25T15:48:25;13.63;;;3.17;;
30247;SDS011;17063;50.892;4.702;2022-11-25T15:53:41;9.60;;;2.53;;
30247;SDS011;17063;50.892;4.702;2022-11-25T15:56:09;14.17;;;3.00;;
30247;SDS011;17063;50.892;4.702;2022-11-25T15:58:40;24.53;;;4.20;;
30247;SDS011;17063;50.892;4.702;2022-11-25T16:01:18;10.90;;;2.63;;
30247;SDS011;17063;50.892;4.702;2022-11-25T16:03:47;18.60;;;2.90;;
30247;SDS011;17063;50.892;4.702;2022-11-25T16:06:19;23.57;;;3.33;;
30247;SDS011;17063;50.892;4.702;2022-11-25T16:11:23;16.73;;;2.87;;
30247;SDS011;17063;50.892;4.702;2022-11-25T16:13:51;16.27;;;3.00;;
30247;SDS011;17063;50.892;4.702;2022-11-25T16:16:20;16.10;;;2.80;;
30247;SDS011;17063;50.892;4.702;2022-11-25T16:31:57;20.43;;;4.40;;
30247;SDS011;17063;50.892;4.702;2022-11-25T16:34:25;15.30;;;3.50;;
30247;SDS011;17063;50.892;4.702;2022-11-25T16:36:52;17.97;;;4.03;;
30247;SDS011;17063;50.892;4.702;2022-11-25T16:39:19;16.67;;;3.97;;
30247;SDS011;17063;50.892;4.702;2022-11-25T16:41:56;17.23;;;3.07;;
30247;SDS011;17063;50.892;4.702;2022-11-25T16:44:24;17.77;;;3.60;;
30247;SDS011;17063;50.892;4.702;2022-11-25T16:46:52;21.87;;;4.10;;
30247;SDS011;17063;50.892;4.702;2022-11-25T16:49:20;18.93;;;3.43;;
30247;SDS011;17063;50.892;4.702;2022-11-25T16:51:48;16.30;;;4.10;;
30247;SDS011;17063;50.892;4.702;2022-11-25T16:54:19;23.77;;;6.00;;
30247;SDS011;17063;50.892;4.702;2022-11-25T16:56:50;17.43;;;4.67;;
30247;SDS011;17063;50.892;4.702;2022-11-25T16:59:28;15.00;;;3.40;;
30247;SDS011;17063;50.892;4.702;2022-11-25T17:01:57;15.10;;;3.40;;
30247;SDS011;17063;50.892;4.702;2022-11-25T17:04:25;20.07;;;4.47;;
30247;SDS011;17063;50.892;4.702;2022-11-25T17:06:56;14.57;;;3.63;;
30247;SDS011;17063;50.892;4.702;2022-11-25T17:09:43;11.23;;;3.53;;
30247;SDS011;17063;50.892;4.702;2022-11-25T17:12:12;19.00;;;4.10;;
30247;SDS011;17063;50.892;4.702;2022-11-25T17:14:42;14.50;;;3.50;;
30247;SDS011;17063;50.892;4.702;2022-11-25T17:17:11;12.57;;;3.67;;
30247;SDS011;17063;50.892;4.702;2022-11-25T17:19:40;14.17;;;3.60;;
30247;SDS011;17063;50.892;4.702;2022-11-25T17:22:16;18.90;;;3.90;;